createdAt,value
2022-09-25T00:02:24.308Z,20.08
2022-09-25T00:07:26.293Z,19.65
2022-09-25T00:12:28.198Z,20.10
2022-09-25T00:17:30.149Z,19.97
2022-09-25T00:22:32.084Z,21.97
2022-09-25T00:27:33.994Z,23.43
2022-09-25T00:32:36.145Z,23.80
2022-09-25T00:37:38.213Z,27.45
2022-09-25T00:42:41.150Z,26.56
2022-09-25T00:48:01.202Z,26.00
2022-09-25T00:53:16.789Z,25.64
2022-09-25T00:58:23.793Z,24.94
2022-09-25T01:03:27.565Z,26.01
2022-09-25T01:08:31.025Z,26.26
2022-09-25T01:13:33.397Z,25.15
2022-09-25T01:19:08.181Z,25.02
2022-09-25T01:24:34.604Z,25.17
2022-09-25T01:29:42.770Z,25.42
2022-09-25T01:34:55.502Z,24.94
2022-09-25T01:40:21.065Z,24.35
2022-09-25T01:45:35.082Z,24.01
2022-09-25T01:50:47.066Z,24.42
2022-09-25T01:55:54.543Z,34.67
2022-09-25T02:01:16.891Z,34.12
2022-09-25T02:06:20.966Z,31.74
2022-09-25T02:11:25.925Z,30.86
2022-09-25T02:16:43.587Z,29.33
2022-09-25T02:21:59.906Z,28.42
2022-09-25T02:27:02.947Z,28.27
2022-09-25T02:32:11.899Z,27.44
2022-09-25T02:37:15.145Z,29.85
2022-09-25T02:42:32.606Z,30.54
2022-09-25T02:47:40.024Z,33.11
2022-09-25T02:52:46.330Z,30.13
2022-09-25T02:58:01.539Z,29.13
2022-09-25T03:03:07.498Z,28.10
2022-09-25T03:08:28.273Z,27.63
2022-09-25T03:13:31.333Z,26.26
2022-09-25T03:18:33.904Z,26.60
2022-09-25T03:23:35.918Z,26.17
2022-09-25T03:28:37.777Z,25.06
2022-09-25T03:33:41.681Z,23.47
2022-09-25T03:38:44.052Z,24.40
2022-09-25T03:43:48.712Z,24.04
2022-09-25T03:48:52.177Z,23.92
2022-09-25T03:53:55.067Z,24.59
2022-09-25T03:58:57.790Z,24.33
2022-09-25T04:04:03.216Z,27.33
2022-09-25T04:09:05.223Z,27.83
2022-09-25T04:14:07.343Z,32.90
2022-09-25T04:19:10.367Z,34.90
2022-09-25T04:24:31.113Z,36.45
2022-09-25T04:29:32.967Z,39.07
2022-09-25T04:34:35.045Z,37.31
2022-09-25T04:39:37.007Z,35.17
2022-09-25T04:44:39.438Z,33.47
2022-09-25T04:49:41.959Z,31.43
2022-09-25T04:54:43.841Z,30.94
2022-09-25T04:59:46.034Z,32.51
2022-09-25T05:04:48.275Z,30.82
2022-09-25T05:09:50.150Z,28.95
2022-09-25T05:14:52.086Z,29.79
2022-09-25T05:19:54.026Z,31.25
2022-09-25T05:24:59.020Z,29.55
2022-09-25T05:30:01.621Z,28.12
2022-09-25T05:35:04.272Z,30.16
2022-09-25T05:40:06.848Z,28.96
2022-09-25T05:45:09.738Z,26.74
2022-09-25T05:50:15.521Z,25.38
2022-09-25T05:55:17.531Z,20.87
2022-09-25T06:00:19.619Z,20.48
2022-09-25T06:05:21.521Z,18.49
2022-09-25T06:10:26.117Z,16.32
2022-09-25T06:15:38.637Z,15.00
2022-09-25T06:20:40.991Z,13.50
2022-09-25T06:25:42.978Z,13.62
2022-09-25T06:30:45.700Z,12.53
2022-09-25T06:35:48.950Z,11.43
2022-09-25T06:40:50.952Z,8.56
2022-09-25T06:45:53.211Z,6.54
2022-09-25T06:50:56.852Z,6.81
2022-09-25T06:56:00.176Z,4.88
2022-09-25T07:01:06.292Z,5.92
2022-09-25T07:06:14.137Z,3.84
2022-09-25T07:11:21.466Z,4.16
2022-09-25T07:16:29.749Z,2.23
2022-09-25T07:21:32.471Z,0.58
2022-09-25T07:26:34.651Z,1.32
2022-09-25T07:31:37.962Z,1.89
2022-09-25T07:36:42.690Z,1.73
2022-09-25T07:41:44.568Z,3.83
2022-09-25T07:46:47.005Z,5.20
2022-09-25T07:51:49.222Z,3.78
2022-09-25T07:56:51.549Z,2.43
2022-09-25T08:01:54.398Z,-0.33
2022-09-25T08:06:59.376Z,-1.59
2022-09-25T08:12:02.647Z,-3.25
2022-09-25T08:17:04.594Z,-4.76
2022-09-25T08:22:06.464Z,-5.87
2022-09-25T08:27:08.509Z,116.70
2022-09-25T08:32:10.387Z,117.26
2022-09-25T08:37:12.310Z,116.71
2022-09-25T08:42:21.320Z,117.63
2022-09-25T08:47:44.522Z,116.49
2022-09-25T08:52:57.397Z,116.43
2022-09-25T08:57:59.556Z,116.98
2022-09-25T09:03:01.833Z,117.60
2022-09-25T09:08:10.528Z,-5.22
2022-09-25T09:13:34.536Z,-4.56
2022-09-25T09:18:39.513Z,-3.98
2022-09-25T09:23:59.439Z,-2.03
2022-09-25T09:29:13.201Z,-1.98
2022-09-25T09:34:36.161Z,-2.40
2022-09-25T09:40:15.311Z,-2.64
2022-09-25T09:45:35.826Z,-1.43
2022-09-25T09:50:56.094Z,118.34
2022-09-25T09:56:19.813Z,116.63
2022-09-25T10:01:40.732Z,113.64
2022-09-25T10:06:59.267Z,111.48
2022-09-25T10:12:14.929Z,108.60
2022-09-25T10:17:19.158Z,107.82
2022-09-25T10:22:26.540Z,100.62
2022-09-25T10:27:31.084Z,101.99
2022-09-25T10:32:46.913Z,99.62
2022-09-25T10:37:53.346Z,98.30
2022-09-25T10:43:18.702Z,101.02
2022-09-25T10:48:56.339Z,102.86
2022-09-25T10:54:16.493Z,102.30
2022-09-25T10:59:23.571Z,101.54
2022-09-25T11:04:30.041Z,99.51
2022-09-25T11:09:33.590Z,99.13
2022-09-25T11:14:36.856Z,101.56
2022-09-25T11:19:38.941Z,102.54
2022-09-25T11:24:57.187Z,101.80
2022-09-25T11:30:04.021Z,102.38
2022-09-25T11:35:30.552Z,96.30
2022-09-25T11:41:15.042Z,97.36
2022-09-25T11:46:33.879Z,98.79
2022-09-25T11:51:58.084Z,95.77
2022-09-25T11:57:11.045Z,93.95
2022-09-25T12:02:16.094Z,88.95
2022-09-25T12:07:32.586Z,89.88
2022-09-25T12:12:48.053Z,87.32
2022-09-25T12:18:34.281Z,91.03
2022-09-25T12:23:59.614Z,91.72
2022-09-25T12:29:29.102Z,91.17
2022-09-25T12:34:33.769Z,88.35
2022-09-25T12:39:41.298Z,85.77
2022-09-25T12:45:06.249Z,84.18
2022-09-25T12:50:17.917Z,84.07
2022-09-25T12:55:26.339Z,83.58
2022-09-25T13:00:32.963Z,84.37
2022-09-25T13:05:46.509Z,86.85
2022-09-25T13:10:52.495Z,87.27
2022-09-25T13:16:02.775Z,87.05
2022-09-25T13:21:32.103Z,86.67
2022-09-25T13:26:53.842Z,86.80
2022-09-25T13:32:13.856Z,86.77
2022-09-25T13:37:16.257Z,87.55
2022-09-25T13:42:33.238Z,89.32
2022-09-25T13:47:38.548Z,89.65
2022-09-25T13:52:40.550Z,89.86
2022-09-25T13:58:01.417Z,89.76
2022-09-25T14:03:05.121Z,90.07
2022-09-25T14:08:12.170Z,89.79
2022-09-25T14:13:16.374Z,89.26
2022-09-25T14:18:26.268Z,90.73
2022-09-25T14:23:30.668Z,90.13
2022-09-25T14:28:36.304Z,91.19
2022-09-25T14:33:51.796Z,91.72
2022-09-25T14:39:29.323Z,92.39
2022-09-25T14:44:40.337Z,92.25
2022-09-25T14:49:49.497Z,91.40
2022-09-25T14:54:55.393Z,92.15
2022-09-25T15:00:07.785Z,92.53
2022-09-25T15:05:27.264Z,94.01
2022-09-25T15:10:37.835Z,94.20
2022-09-25T15:15:40.507Z,94.88
2022-09-25T15:20:47.496Z,96.14
2022-09-25T15:25:53.769Z,97.58
2022-09-25T15:30:58.201Z,98.48
2022-09-25T15:36:03.582Z,100.71
2022-09-25T15:41:12.612Z,101.82
2022-09-25T15:46:31.560Z,102.88
2022-09-25T15:51:35.999Z,105.22
2022-09-25T15:56:51.165Z,105.63
2022-09-25T16:02:12.635Z,106.93
2022-09-25T16:07:34.403Z,107.51
2022-09-25T16:12:42.580Z,109.30
2022-09-25T16:17:44.689Z,110.79
2022-09-25T16:22:49.564Z,112.09
2022-09-25T16:27:54.665Z,114.53
2022-09-25T16:33:03.747Z,115.96
2022-09-25T16:38:06.129Z,117.55
2022-09-25T16:43:25.859Z,118.47
2022-09-25T16:48:39.399Z,-5.64
2022-09-25T16:53:41.513Z,-5.47
2022-09-25T16:58:43.608Z,-4.81
2022-09-25T17:03:51.790Z,-3.88
2022-09-25T17:08:54.032Z,-2.73
2022-09-25T17:13:56.269Z,-1.29
2022-09-25T17:19:01.503Z,-0.73
2022-09-25T17:24:10.216Z,1.69
2022-09-25T17:29:13.289Z,3.07
2022-09-25T17:34:21.587Z,4.19
2022-09-25T17:39:24.200Z,5.25
2022-09-25T17:44:27.544Z,4.86
2022-09-25T17:49:29.675Z,6.42
2022-09-25T17:54:31.752Z,7.36
2022-09-25T17:59:37.040Z,8.40
2022-09-25T18:04:39.175Z,10.61
2022-09-25T18:09:41.728Z,11.70
2022-09-25T18:14:46.332Z,11.49
2022-09-25T18:20:06.901Z,12.97
2022-09-25T18:25:10.798Z,13.08
2022-09-25T18:30:15.912Z,14.55
2022-09-25T18:35:19.556Z,14.81
2022-09-25T18:40:21.763Z,16.72
2022-09-25T18:45:24.404Z,18.80
2022-09-25T18:50:28.337Z,20.06
2022-09-25T18:55:30.552Z,25.64
2022-09-25T19:00:33.557Z,23.42
2022-09-25T19:05:35.616Z,24.16
2022-09-25T19:10:38.323Z,24.75
2022-09-25T19:15:43.483Z,23.57
2022-09-25T19:20:54.746Z,25.61
2022-09-25T19:25:59.496Z,24.01
2022-09-25T19:31:06.696Z,23.81
2022-09-25T19:36:21.194Z,25.58
2022-09-25T19:41:26.606Z,24.12
2022-09-25T19:46:29.457Z,25.17
2022-09-25T19:51:32.137Z,25.78
2022-09-25T19:56:40.558Z,26.81
2022-09-25T20:01:44.140Z,28.53
2022-09-25T20:06:53.294Z,28.58
2022-09-25T20:12:07.989Z,28.40
2022-09-25T20:17:10.485Z,29.86
2022-09-25T20:22:12.569Z,30.16
2022-09-25T20:27:14.661Z,29.13
2022-09-25T20:32:16.774Z,29.64
2022-09-25T20:37:18.896Z,30.11
2022-09-25T20:42:21.369Z,29.39
2022-09-25T20:47:23.271Z,30.32
2022-09-25T20:52:26.314Z,31.16
2022-09-25T20:57:32.920Z,30.17
2022-09-25T21:02:35.020Z,30.65
2022-09-25T21:07:36.990Z,30.78
2022-09-25T21:12:39.021Z,30.94
2022-09-25T21:17:40.935Z,30.28
2022-09-25T21:22:42.892Z,29.86
2022-09-25T21:27:45.097Z,30.16
2022-09-25T21:32:47.305Z,30.25
2022-09-25T21:37:49.358Z,31.06
2022-09-25T21:42:51.206Z,31.43
2022-09-25T21:47:53.224Z,32.06
2022-09-25T21:52:55.296Z,33.21
2022-09-25T21:57:57.295Z,30.90
2022-09-25T22:02:59.245Z,30.43
2022-09-25T22:08:01.633Z,30.11
2022-09-25T22:13:04.283Z,30.18
2022-09-25T22:18:06.592Z,31.35
2022-09-25T22:23:08.461Z,30.62
2022-09-25T22:28:10.425Z,30.16
2022-09-25T22:33:12.420Z,31.60
2022-09-25T22:38:14.353Z,31.36
2022-09-25T22:43:16.430Z,32.74
2022-09-25T22:48:19.309Z,30.10
2022-09-25T22:53:22.244Z,31.93
2022-09-25T22:58:24.437Z,32.29
2022-09-25T23:03:26.496Z,33.22
2022-09-25T23:08:29.455Z,31.94
2022-09-25T23:13:32.193Z,34.10
2022-09-25T23:18:36.203Z,34.86
2022-09-25T23:23:38.292Z,35.53
2022-09-25T23:28:41.294Z,36.31
2022-09-25T23:33:44.169Z,37.46
2022-09-25T23:38:47.673Z,37.89
2022-09-25T23:43:52.127Z,37.24
2022-09-25T23:48:55.013Z,37.09
2022-09-25T23:53:59.606Z,37.52
2022-09-25T23:59:02.394Z,36.74
